sensor_id;sensor_type;location;lat;lon;timestamp;P1;durP1;ratioP1;P2;durP2;ratioP2
68806;SDS011;55800;54.272;18.558;2023-02-01T00:02:14;3.17;;;1.73;;
68806;SDS011;55800;54.272;18.558;2023-02-01T00:04:43;3.55;;;2.40;;
68806;SDS011;55800;54.272;18.558;2023-02-01T00:07:13;4.93;;;2.60;;
68806;SDS011;55800;54.272;18.558;2023-02-01T00:09:42;5.68;;;2.88;;
68806;SDS011;55800;54.272;18.558;2023-02-01T00:12:11;2.35;;;2.03;;
68806;SDS011;55800;54.272;18.558;2023-02-01T00:14:41;5.32;;;2.58;;
68806;SDS011;55800;54.272;18.558;2023-02-01T00:17:10;3.08;;;2.47;;
68806;SDS011;55800;54.272;18.558;2023-02-01T00:19:40;4.80;;;2.00;;
68806;SDS011;55800;54.272;18.558;2023-02-01T00:22:10;3.80;;;1.70;;
68806;SDS011;55800;54.272;18.558;2023-02-01T00:24:39;7.13;;;2.30;;
68806;SDS011;55800;54.272;18.558;2023-02-01T00:27:08;1.83;;;1.73;;
68806;SDS011;55800;54.272;18.558;2023-02-01T00:29:40;2.45;;;2.05;;
68806;SDS011;55800;54.272;18.558;2023-02-01T00:32:09;1.88;;;1.77;;
68806;SDS011;55800;54.272;18.558;2023-02-01T00:34:38;4.00;;;2.00;;
68806;SDS011;55800;54.272;18.558;2023-02-01T00:37:09;5.72;;;2.50;;
68806;SDS011;55800;54.272;18.558;2023-02-01T00:39:38;5.50;;;2.85;;
68806;SDS011;55800;54.272;18.558;2023-02-01T00:42:07;3.90;;;1.80;;
68806;SDS011;55800;54.272;18.558;2023-02-01T00:47:07;5.35;;;1.95;;
68806;SDS011;55800;54.272;18.558;2023-02-01T00:49:37;9.98;;;3.28;;
68806;SDS011;55800;54.272;18.558;2023-02-01T00:52:07;8.18;;;2.63;;
68806;SDS011;55800;54.272;18.558;2023-02-01T00:54:37;3.65;;;1.95;;
68806;SDS011;55800;54.272;18.558;2023-02-01T00:57:06;5.72;;;3.20;;
68806;SDS011;55800;54.272;18.558;2023-02-01T00:59:36;6.28;;;2.35;;
68806;SDS011;55800;54.272;18.558;2023-02-01T01:02:05;7.93;;;2.85;;
68806;SDS011;55800;54.272;18.558;2023-02-01T01:04:34;3.30;;;1.83;;
68806;SDS011;55800;54.272;18.558;2023-02-01T01:07:04;2.05;;;1.58;;
68806;SDS011;55800;54.272;18.558;2023-02-01T01:12:04;11.20;;;2.65;;
68806;SDS011;55800;54.272;18.558;2023-02-01T01:14:34;7.63;;;2.63;;
68806;SDS011;55800;54.272;18.558;2023-02-01T01:17:03;3.22;;;2.20;;
68806;SDS011;55800;54.272;18.558;2023-02-01T01:19:32;2.45;;;2.20;;
68806;SDS011;55800;54.272;18.558;2023-02-01T01:22:02;6.53;;;2.70;;
68806;SDS011;55800;54.272;18.558;2023-02-01T01:27:01;5.78;;;2.50;;
68806;SDS011;55800;54.272;18.558;2023-02-01T01:29:31;1.92;;;1.80;;
68806;SDS011;55800;54.272;18.558;2023-02-01T01:32:01;3.30;;;2.17;;
68806;SDS011;55800;54.272;18.558;2023-02-01T01:34:30;4.43;;;2.47;;
68806;SDS011;55800;54.272;18.558;2023-02-01T01:36:59;3.45;;;2.70;;
68806;SDS011;55800;54.272;18.558;2023-02-01T01:39:31;7.15;;;3.13;;
68806;SDS011;55800;54.272;18.558;2023-02-01T01:42:02;5.05;;;2.45;;
68806;SDS011;55800;54.272;18.558;2023-02-01T01:47:33;5.38;;;2.17;;
68806;SDS011;55800;54.272;18.558;2023-02-01T01:50:06;3.55;;;2.75;;
68806;SDS011;55800;54.272;18.558;2023-02-01T01:52:38;4.18;;;2.40;;
68806;SDS011;55800;54.272;18.558;2023-02-01T01:55:09;5.38;;;2.92;;
68806;SDS011;55800;54.272;18.558;2023-02-01T01:57:42;2.65;;;2.00;;
68806;SDS011;55800;54.272;18.558;2023-02-01T02:00:15;3.65;;;2.17;;
68806;SDS011;55800;54.272;18.558;2023-02-01T02:02:51;8.48;;;2.35;;
68806;SDS011;55800;54.272;18.558;2023-02-01T02:05:24;3.10;;;2.80;;
68806;SDS011;55800;54.272;18.558;2023-02-01T02:07:56;8.23;;;3.00;;
68806;SDS011;55800;54.272;18.558;2023-02-01T02:10:28;13.30;;;3.65;;
68806;SDS011;55800;54.272;18.558;2023-02-01T02:13:13;8.55;;;3.08;;
68806;SDS011;55800;54.272;18.558;2023-02-01T02:15:45;3.95;;;2.28;;
68806;SDS011;55800;54.272;18.558;2023-02-01T02:18:25;3.22;;;1.90;;
68806;SDS011;55800;54.272;18.558;2023-02-01T02:21:10;3.03;;;1.63;;
68806;SDS011;55800;54.272;18.558;2023-02-01T02:27:02;10.02;;;2.53;;
68806;SDS011;55800;54.272;18.558;2023-02-01T02:30:02;3.60;;;2.42;;
68806;SDS011;55800;54.272;18.558;2023-02-01T02:35:58;5.63;;;2.22;;
68806;SDS011;55800;54.272;18.558;2023-02-01T02:38:32;1.95;;;1.85;;
68806;SDS011;55800;54.272;18.558;2023-02-01T02:41:12;4.28;;;2.13;;
68806;SDS011;55800;54.272;18.558;2023-02-01T02:44:08;2.42;;;2.22;;
68806;SDS011;55800;54.272;18.558;2023-02-01T02:47:00;3.90;;;2.38;;
68806;SDS011;55800;54.272;18.558;2023-02-01T02:49:58;1.73;;;1.63;;
68806;SDS011;55800;54.272;18.558;2023-02-01T02:52:51;2.03;;;1.92;;
68806;SDS011;55800;54.272;18.558;2023-02-01T02:55:56;3.72;;;2.10;;
68806;SDS011;55800;54.272;18.558;2023-02-01T02:58:44;2.25;;;2.10;;
68806;SDS011;55800;54.272;18.558;2023-02-01T03:01:33;3.10;;;1.70;;
68806;SDS011;55800;54.272;18.558;2023-02-01T03:04:20;2.65;;;2.47;;
68806;SDS011;55800;54.272;18.558;2023-02-01T03:06:53;6.90;;;3.20;;
68806;SDS011;55800;54.272;18.558;2023-02-01T03:09:23;2.08;;;1.88;;
68806;SDS011;55800;54.272;18.558;2023-02-01T03:12:00;2.17;;;1.70;;
68806;SDS011;55800;54.272;18.558;2023-02-01T03:14:53;1.85;;;1.75;;
68806;SDS011;55800;54.272;18.558;2023-02-01T03:17:30;1.90;;;1.80;;
68806;SDS011;55800;54.272;18.558;2023-02-01T03:20:04;2.38;;;1.92;;
68806;SDS011;55800;54.272;18.558;2023-02-01T03:22:39;4.82;;;1.70;;
68806;SDS011;55800;54.272;18.558;2023-02-01T03:25:12;9.90;;;2.78;;
68806;SDS011;55800;54.272;18.558;2023-02-01T03:27:48;7.20;;;2.60;;
68806;SDS011;55800;54.272;18.558;2023-02-01T03:33:46;7.05;;;2.45;;
68806;SDS011;55800;54.272;18.558;2023-02-01T03:36:17;8.02;;;3.17;;
68806;SDS011;55800;54.272;18.558;2023-02-01T03:38:55;3.15;;;2.20;;
68806;SDS011;55800;54.272;18.558;2023-02-01T03:41:33;10.10;;;5.35;;
68806;SDS011;55800;54.272;18.558;2023-02-01T03:44:10;8.63;;;4.50;;
68806;SDS011;55800;54.272;18.558;2023-02-01T03:46:45;6.60;;;3.40;;
68806;SDS011;55800;54.272;18.558;2023-02-01T03:49:19;10.45;;;3.17;;
68806;SDS011;55800;54.272;18.558;2023-02-01T03:51:53;4.97;;;2.05;;
68806;SDS011;55800;54.272;18.558;2023-02-01T03:54:26;6.40;;;2.97;;
68806;SDS011;55800;54.272;18.558;2023-02-01T03:56:56;13.80;;;3.63;;
68806;SDS011;55800;54.272;18.558;2023-02-01T03:59:29;4.30;;;1.70;;
68806;SDS011;55800;54.272;18.558;2023-02-01T04:01:58;2.50;;;2.30;;
68806;SDS011;55800;54.272;18.558;2023-02-01T04:04:28;2.20;;;1.88;;
68806;SDS011;55800;54.272;18.558;2023-02-01T04:06:58;13.55;;;2.88;;
68806;SDS011;55800;54.272;18.558;2023-02-01T04:09:29;3.03;;;2.70;;
68806;SDS011;55800;54.272;18.558;2023-02-01T04:11:59;3.35;;;1.50;;
68806;SDS011;55800;54.272;18.558;2023-02-01T04:14:29;4.63;;;2.45;;
68806;SDS011;55800;54.272;18.558;2023-02-01T04:16:58;3.75;;;2.80;;
68806;SDS011;55800;54.272;18.558;2023-02-01T04:19:27;4.82;;;2.80;;
68806;SDS011;55800;54.272;18.558;2023-02-01T04:21:56;5.83;;;3.03;;
68806;SDS011;55800;54.272;18.558;2023-02-01T04:24:26;6.47;;;2.60;;
68806;SDS011;55800;54.272;18.558;2023-02-01T04:26:56;4.03;;;2.33;;
68806;SDS011;55800;54.272;18.558;2023-02-01T04:29:26;5.88;;;2.97;;
68806;SDS011;55800;54.272;18.558;2023-02-01T04:31:55;6.57;;;4.00;;
68806;SDS011;55800;54.272;18.558;2023-02-01T04:34:24;4.53;;;2.75;;
68806;SDS011;55800;54.272;18.558;2023-02-01T04:36:55;16.85;;;2.65;;
68806;SDS011;55800;54.272;18.558;2023-02-01T04:39:24;7.28;;;2.88;;
68806;SDS011;55800;54.272;18.558;2023-02-01T04:41:53;1.83;;;1.63;;
68806;SDS011;55800;54.272;18.558;2023-02-01T04:44:24;4.97;;;2.42;;
68806;SDS011;55800;54.272;18.558;2023-02-01T04:46:53;4.90;;;2.92;;
68806;SDS011;55800;54.272;18.558;2023-02-01T04:49:23;8.00;;;3.05;;
68806;SDS011;55800;54.272;18.558;2023-02-01T04:51:53;3.95;;;2.15;;
68806;SDS011;55800;54.272;18.558;2023-02-01T04:54:22;5.35;;;2.47;;
68806;SDS011;55800;54.272;18.558;2023-02-01T04:56:52;4.38;;;2.58;;
68806;SDS011;55800;54.272;18.558;2023-02-01T04:59:21;4.93;;;2.38;;
68806;SDS011;55800;54.272;18.558;2023-02-01T05:01:52;2.90;;;2.35;;
68806;SDS011;55800;54.272;18.558;2023-02-01T05:04:21;5.70;;;3.25;;
68806;SDS011;55800;54.272;18.558;2023-02-01T05:06:50;6.63;;;4.03;;
68806;SDS011;55800;54.272;18.558;2023-02-01T05:09:20;6.72;;;3.60;;
68806;SDS011;55800;54.272;18.558;2023-02-01T05:11:49;5.78;;;2.75;;
68806;SDS011;55800;54.272;18.558;2023-02-01T05:14:33;5.10;;;2.90;;
68806;SDS011;55800;54.272;18.558;2023-02-01T05:17:03;4.00;;;2.47;;
68806;SDS011;55800;54.272;18.558;2023-02-01T05:19:33;4.82;;;3.40;;
68806;SDS011;55800;54.272;18.558;2023-02-01T05:22:02;3.92;;;2.65;;
68806;SDS011;55800;54.272;18.558;2023-02-01T05:24:31;5.07;;;2.47;;
68806;SDS011;55800;54.272;18.558;2023-02-01T05:27:00;10.13;;;3.40;;
68806;SDS011;55800;54.272;18.558;2023-02-01T05:29:29;4.20;;;3.17;;
68806;SDS011;55800;54.272;18.558;2023-02-01T05:31:59;6.10;;;2.65;;
68806;SDS011;55800;54.272;18.558;2023-02-01T05:34:48;7.57;;;2.92;;
68806;SDS011;55800;54.272;18.558;2023-02-01T05:37:18;9.25;;;3.17;;
68806;SDS011;55800;54.272;18.558;2023-02-01T05:39:47;8.70;;;4.53;;
68806;SDS011;55800;54.272;18.558;2023-02-01T05:42:16;6.50;;;3.28;;
68806;SDS011;55800;54.272;18.558;2023-02-01T05:44:45;4.70;;;3.53;;
68806;SDS011;55800;54.272;18.558;2023-02-01T05:47:14;2.20;;;1.63;;
68806;SDS011;55800;54.272;18.558;2023-02-01T05:49:44;5.30;;;2.13;;
68806;SDS011;55800;54.272;18.558;2023-02-01T05:52:14;4.60;;;2.77;;
68806;SDS011;55800;54.272;18.558;2023-02-01T05:54:46;2.95;;;2.40;;
68806;SDS011;55800;54.272;18.558;2023-02-01T05:57:15;3.22;;;1.77;;
68806;SDS011;55800;54.272;18.558;2023-02-01T05:59:45;5.35;;;2.83;;
68806;SDS011;55800;54.272;18.558;2023-02-01T06:02:15;1.45;;;1.45;;
68806;SDS011;55800;54.272;18.558;2023-02-01T06:04:45;3.35;;;1.67;;
68806;SDS011;55800;54.272;18.558;2023-02-01T06:07:16;5.60;;;2.58;;
68806;SDS011;55800;54.272;18.558;2023-02-01T06:09:45;2.17;;;2.03;;
68806;SDS011;55800;54.272;18.558;2023-02-01T06:12:15;1.85;;;1.73;;
68806;SDS011;55800;54.272;18.558;2023-02-01T06:14:44;2.97;;;1.65;;
68806;SDS011;55800;54.272;18.558;2023-02-01T06:17:13;1.67;;;1.55;;
68806;SDS011;55800;54.272;18.558;2023-02-01T06:19:43;3.00;;;2.25;;
68806;SDS011;55800;54.272;18.558;2023-02-01T06:22:13;2.83;;;2.47;;
68806;SDS011;55800;54.272;18.558;2023-02-01T06:24:43;2.30;;;2.10;;
68806;SDS011;55800;54.272;18.558;2023-02-01T06:27:13;4.38;;;2.08;;
68806;SDS011;55800;54.272;18.558;2023-02-01T06:29:42;2.38;;;2.17;;
68806;SDS011;55800;54.272;18.558;2023-02-01T06:32:11;9.30;;;2.92;;
68806;SDS011;55800;54.272;18.558;2023-02-01T06:34:41;4.07;;;2.17;;
68806;SDS011;55800;54.272;18.558;2023-02-01T06:37:10;2.05;;;1.88;;
68806;SDS011;55800;54.272;18.558;2023-02-01T06:39:39;8.73;;;2.72;;
68806;SDS011;55800;54.272;18.558;2023-02-01T06:42:10;5.90;;;2.70;;
68806;SDS011;55800;54.272;18.558;2023-02-01T06:44:40;3.85;;;2.35;;
68806;SDS011;55800;54.272;18.558;2023-02-01T06:47:09;12.03;;;3.47;;
68806;SDS011;55800;54.272;18.558;2023-02-01T06:49:38;3.17;;;2.38;;
68806;SDS011;55800;54.272;18.558;2023-02-01T06:52:08;5.75;;;2.45;;
68806;SDS011;55800;54.272;18.558;2023-02-01T06:54:37;4.38;;;2.92;;
68806;SDS011;55800;54.272;18.558;2023-02-01T06:57:06;5.35;;;2.10;;
68806;SDS011;55800;54.272;18.558;2023-02-01T06:59:37;4.00;;;2.35;;
68806;SDS011;55800;54.272;18.558;2023-02-01T07:02:08;5.22;;;3.13;;
68806;SDS011;55800;54.272;18.558;2023-02-01T07:04:38;3.38;;;2.72;;
68806;SDS011;55800;54.272;18.558;2023-02-01T07:07:08;2.25;;;2.05;;
68806;SDS011;55800;54.272;18.558;2023-02-01T07:09:37;2.63;;;2.33;;
68806;SDS011;55800;54.272;18.558;2023-02-01T07:12:06;4.80;;;2.33;;
68806;SDS011;55800;54.272;18.558;2023-02-01T07:14:37;9.68;;;2.20;;
68806;SDS011;55800;54.272;18.558;2023-02-01T07:17:07;3.15;;;1.92;;
68806;SDS011;55800;54.272;18.558;2023-02-01T07:19:36;3.78;;;2.63;;
68806;SDS011;55800;54.272;18.558;2023-02-01T07:22:05;6.63;;;3.15;;
68806;SDS011;55800;54.272;18.558;2023-02-01T07:24:35;6.93;;;2.83;;
68806;SDS011;55800;54.272;18.558;2023-02-01T07:27:04;8.55;;;2.80;;
68806;SDS011;55800;54.272;18.558;2023-02-01T07:29:33;10.80;;;3.72;;
68806;SDS011;55800;54.272;18.558;2023-02-01T07:32:03;11.90;;;3.30;;
68806;SDS011;55800;54.272;18.558;2023-02-01T07:34:33;5.65;;;3.45;;
68806;SDS011;55800;54.272;18.558;2023-02-01T07:37:02;13.68;;;4.10;;
68806;SDS011;55800;54.272;18.558;2023-02-01T07:39:32;9.77;;;3.90;;
68806;SDS011;55800;54.272;18.558;2023-02-01T07:42:01;8.82;;;5.10;;
68806;SDS011;55800;54.272;18.558;2023-02-01T07:44:30;11.93;;;5.07;;
68806;SDS011;55800;54.272;18.558;2023-02-01T07:46:59;19.98;;;5.57;;
68806;SDS011;55800;54.272;18.558;2023-02-01T07:49:30;4.85;;;3.70;;
68806;SDS011;55800;54.272;18.558;2023-02-01T07:51:59;8.40;;;4.13;;
68806;SDS011;55800;54.272;18.558;2023-02-01T07:54:29;13.70;;;4.65;;
68806;SDS011;55800;54.272;18.558;2023-02-01T07:56:58;12.03;;;3.87;;
68806;SDS011;55800;54.272;18.558;2023-02-01T07:59:27;12.90;;;3.67;;
68806;SDS011;55800;54.272;18.558;2023-02-01T08:01:57;12.45;;;3.97;;
68806;SDS011;55800;54.272;18.558;2023-02-01T08:04:25;8.93;;;4.03;;
68806;SDS011;55800;54.272;18.558;2023-02-01T08:06:57;7.13;;;3.97;;
68806;SDS011;55800;54.272;18.558;2023-02-01T08:09:26;11.63;;;3.40;;
68806;SDS011;55800;54.272;18.558;2023-02-01T08:11:56;5.55;;;4.35;;
68806;SDS011;55800;54.272;18.558;2023-02-01T08:14:25;9.90;;;4.10;;
68806;SDS011;55800;54.272;18.558;2023-02-01T08:19:24;18.27;;;5.53;;
68806;SDS011;55800;54.272;18.558;2023-02-01T08:21:53;9.65;;;4.63;;
68806;SDS011;55800;54.272;18.558;2023-02-01T08:24:24;9.30;;;4.38;;
68806;SDS011;55800;54.272;18.558;2023-02-01T08:26:53;9.05;;;4.68;;
68806;SDS011;55800;54.272;18.558;2023-02-01T08:29:23;18.35;;;6.65;;
68806;SDS011;55800;54.272;18.558;2023-02-01T08:31:52;10.18;;;4.88;;
68806;SDS011;55800;54.272;18.558;2023-02-01T08:34:22;18.02;;;5.05;;
68806;SDS011;55800;54.272;18.558;2023-02-01T08:36:52;9.60;;;3.60;;
68806;SDS011;55800;54.272;18.558;2023-02-01T08:39:28;22.35;;;4.90;;
68806;SDS011;55800;54.272;18.558;2023-02-01T08:41:57;18.23;;;5.57;;
68806;SDS011;55800;54.272;18.558;2023-02-01T08:44:45;20.25;;;5.57;;
68806;SDS011;55800;54.272;18.558;2023-02-01T08:47:15;10.95;;;4.93;;
68806;SDS011;55800;54.272;18.558;2023-02-01T08:49:44;16.02;;;5.47;;
68806;SDS011;55800;54.272;18.558;2023-02-01T08:52:13;10.50;;;5.32;;
68806;SDS011;55800;54.272;18.558;2023-02-01T08:54:44;13.90;;;3.22;;
68806;SDS011;55800;54.272;18.558;2023-02-01T08:57:14;13.88;;;3.30;;
68806;SDS011;55800;54.272;18.558;2023-02-01T08:59:44;19.23;;;6.07;;
68806;SDS011;55800;54.272;18.558;2023-02-01T09:02:13;15.43;;;5.67;;
68806;SDS011;55800;54.272;18.558;2023-02-01T09:04:44;8.00;;;4.32;;
68806;SDS011;55800;54.272;18.558;2023-02-01T09:07:13;17.90;;;5.40;;
68806;SDS011;55800;54.272;18.558;2023-02-01T09:09:46;15.05;;;4.93;;
68806;SDS011;55800;54.272;18.558;2023-02-01T09:12:15;12.30;;;4.82;;
68806;SDS011;55800;54.272;18.558;2023-02-01T09:14:45;9.43;;;4.28;;
68806;SDS011;55800;54.272;18.558;2023-02-01T09:17:14;12.13;;;3.97;;
68806;SDS011;55800;54.272;18.558;2023-02-01T09:22:14;10.60;;;3.63;;
68806;SDS011;55800;54.272;18.558;2023-02-01T09:24:44;36.45;;;6.75;;
68806;SDS011;55800;54.272;18.558;2023-02-01T09:27:15;13.57;;;5.70;;
68806;SDS011;55800;54.272;18.558;2023-02-01T09:29:44;16.85;;;4.53;;
68806;SDS011;55800;54.272;18.558;2023-02-01T09:32:16;6.68;;;3.70;;
68806;SDS011;55800;54.272;18.558;2023-02-01T09:34:46;5.97;;;3.05;;
68806;SDS011;55800;54.272;18.558;2023-02-01T09:37:15;5.00;;;2.53;;
68806;SDS011;55800;54.272;18.558;2023-02-01T09:42:29;12.82;;;3.95;;
68806;SDS011;55800;54.272;18.558;2023-02-01T09:45:16;14.80;;;4.82;;
68806;SDS011;55800;54.272;18.558;2023-02-01T09:47:51;9.63;;;2.63;;
68806;SDS011;55800;54.272;18.558;2023-02-01T09:50:28;16.63;;;5.32;;
68806;SDS011;55800;54.272;18.558;2023-02-01T09:55:39;13.18;;;3.97;;
68806;SDS011;55800;54.272;18.558;2023-02-01T09:58:14;6.20;;;3.95;;
68806;SDS011;55800;54.272;18.558;2023-02-01T10:00:50;7.15;;;3.38;;
68806;SDS011;55800;54.272;18.558;2023-02-01T10:03:22;16.67;;;4.28;;
68806;SDS011;55800;54.272;18.558;2023-02-01T10:06:08;9.18;;;3.63;;
68806;SDS011;55800;54.272;18.558;2023-02-01T10:09:03;24.65;;;4.03;;
68806;SDS011;55800;54.272;18.558;2023-02-01T10:11:45;11.25;;;4.05;;
68806;SDS011;55800;54.272;18.558;2023-02-01T10:14:30;18.88;;;3.85;;
68806;SDS011;55800;54.272;18.558;2023-02-01T10:17:24;7.00;;;2.58;;
68806;SDS011;55800;54.272;18.558;2023-02-01T10:20:04;11.43;;;3.63;;
68806;SDS011;55800;54.272;18.558;2023-02-01T10:22:40;10.50;;;3.65;;
68806;SDS011;55800;54.272;18.558;2023-02-01T10:25:35;12.15;;;3.28;;
68806;SDS011;55800;54.272;18.558;2023-02-01T10:28:12;7.63;;;3.05;;
68806;SDS011;55800;54.272;18.558;2023-02-01T10:30:44;5.40;;;2.90;;
68806;SDS011;55800;54.272;18.558;2023-02-01T10:33:16;10.43;;;3.35;;
68806;SDS011;55800;54.272;18.558;2023-02-01T10:35:46;9.88;;;2.97;;
68806;SDS011;55800;54.272;18.558;2023-02-01T10:38:24;3.92;;;2.17;;
68806;SDS011;55800;54.272;18.558;2023-02-01T10:40:57;12.55;;;2.60;;
68806;SDS011;55800;54.272;18.558;2023-02-01T10:43:32;2.85;;;1.73;;
68806;SDS011;55800;54.272;18.558;2023-02-01T10:46:01;4.63;;;1.70;;
68806;SDS011;55800;54.272;18.558;2023-02-01T10:48:32;11.98;;;2.75;;
68806;SDS011;55800;54.272;18.558;2023-02-01T10:51:04;6.78;;;2.38;;
68806;SDS011;55800;54.272;18.558;2023-02-01T10:53:41;8.07;;;2.17;;
68806;SDS011;55800;54.272;18.558;2023-02-01T10:56:19;7.50;;;2.47;;
68806;SDS011;55800;54.272;18.558;2023-02-01T10:58:59;9.70;;;3.90;;
68806;SDS011;55800;54.272;18.558;2023-02-01T11:01:30;7.75;;;2.38;;
68806;SDS011;55800;54.272;18.558;2023-02-01T11:04:03;3.55;;;2.53;;
68806;SDS011;55800;54.272;18.558;2023-02-01T11:06:35;3.55;;;2.40;;
68806;SDS011;55800;54.272;18.558;2023-02-01T11:09:10;3.78;;;2.35;;
68806;SDS011;55800;54.272;18.558;2023-02-01T11:11:54;6.60;;;1.80;;
68806;SDS011;55800;54.272;18.558;2023-02-01T11:14:30;4.07;;;2.55;;
68806;SDS011;55800;54.272;18.558;2023-02-01T11:17:21;3.88;;;1.48;;
68806;SDS011;55800;54.272;18.558;2023-02-01T11:19:58;2.65;;;1.77;;
68806;SDS011;55800;54.272;18.558;2023-02-01T11:22:33;2.38;;;1.55;;
68806;SDS011;55800;54.272;18.558;2023-02-01T11:25:07;2.15;;;1.58;;
68806;SDS011;55800;54.272;18.558;2023-02-01T11:27:40;2.75;;;1.45;;
68806;SDS011;55800;54.272;18.558;2023-02-01T11:30:26;5.90;;;2.88;;
68806;SDS011;55800;54.272;18.558;2023-02-01T11:35:35;3.28;;;2.75;;
68806;SDS011;55800;54.272;18.558;2023-02-01T11:38:11;4.65;;;2.30;;
68806;SDS011;55800;54.272;18.558;2023-02-01T11:40:49;5.80;;;2.13;;
68806;SDS011;55800;54.272;18.558;2023-02-01T11:43:22;5.35;;;2.35;;
68806;SDS011;55800;54.272;18.558;2023-02-01T11:45:55;2.45;;;2.10;;
68806;SDS011;55800;54.272;18.558;2023-02-01T11:48:26;8.20;;;3.80;;
68806;SDS011;55800;54.272;18.558;2023-02-01T11:51:03;5.18;;;2.28;;
68806;SDS011;55800;54.272;18.558;2023-02-01T11:53:47;6.95;;;2.42;;
68806;SDS011;55800;54.272;18.558;2023-02-01T11:56:32;3.33;;;1.80;;
68806;SDS011;55800;54.272;18.558;2023-02-01T11:59:09;2.38;;;1.73;;
68806;SDS011;55800;54.272;18.558;2023-02-01T12:02:18;4.28;;;2.83;;
68806;SDS011;55800;54.272;18.558;2023-02-01T12:11:03;3.55;;;1.98;;
68806;SDS011;55800;54.272;18.558;2023-02-01T12:13:54;3.95;;;2.42;;
68806;SDS011;55800;54.272;18.558;2023-02-01T12:16:31;5.72;;;2.50;;
68806;SDS011;55800;54.272;18.558;2023-02-01T12:19:19;3.75;;;1.60;;
68806;SDS011;55800;54.272;18.558;2023-02-01T12:22:04;6.05;;;2.70;;
68806;SDS011;55800;54.272;18.558;2023-02-01T12:24:52;6.47;;;2.47;;
68806;SDS011;55800;54.272;18.558;2023-02-01T12:27:53;4.63;;;1.92;;
68806;SDS011;55800;54.272;18.558;2023-02-01T12:30:46;7.40;;;2.47;;
68806;SDS011;55800;54.272;18.558;2023-02-01T12:36:15;4.55;;;2.83;;
68806;SDS011;55800;54.272;18.558;2023-02-01T12:38:52;8.05;;;1.52;;
68806;SDS011;55800;54.272;18.558;2023-02-01T12:41:29;4.22;;;2.75;;
68806;SDS011;55800;54.272;18.558;2023-02-01T12:44:17;4.53;;;2.38;;
68806;SDS011;55800;54.272;18.558;2023-02-01T12:47:05;5.60;;;3.08;;
68806;SDS011;55800;54.272;18.558;2023-02-01T12:49:45;9.85;;;3.60;;
68806;SDS011;55800;54.272;18.558;2023-02-01T12:52:21;1.75;;;1.65;;
68806;SDS011;55800;54.272;18.558;2023-02-01T12:55:01;3.45;;;2.05;;
68806;SDS011;55800;54.272;18.558;2023-02-01T12:57:40;2.10;;;2.00;;
68806;SDS011;55800;54.272;18.558;2023-02-01T13:00:16;1.95;;;1.85;;
68806;SDS011;55800;54.272;18.558;2023-02-01T13:02:52;2.15;;;1.80;;
68806;SDS011;55800;54.272;18.558;2023-02-01T13:05:28;1.45;;;1.35;;
68806;SDS011;55800;54.272;18.558;2023-02-01T13:08:06;2.15;;;1.60;;
68806;SDS011;55800;54.272;18.558;2023-02-01T13:10:38;3.50;;;1.92;;
68806;SDS011;55800;54.272;18.558;2023-02-01T13:13:14;4.70;;;2.47;;
68806;SDS011;55800;54.272;18.558;2023-02-01T13:15:47;3.47;;;1.80;;
68806;SDS011;55800;54.272;18.558;2023-02-01T13:18:22;6.35;;;2.97;;
68806;SDS011;55800;54.272;18.558;2023-02-01T13:20:55;3.88;;;2.53;;
68806;SDS011;55800;54.272;18.558;2023-02-01T13:23:37;12.43;;;4.40;;
68806;SDS011;55800;54.272;18.558;2023-02-01T13:26:08;7.80;;;3.85;;
68806;SDS011;55800;54.272;18.558;2023-02-01T13:28:40;9.85;;;4.90;;
68806;SDS011;55800;54.272;18.558;2023-02-01T13:31:20;5.35;;;3.28;;
68806;SDS011;55800;54.272;18.558;2023-02-01T13:34:11;4.13;;;2.90;;
68806;SDS011;55800;54.272;18.558;2023-02-01T13:37:08;8.90;;;3.55;;
68806;SDS011;55800;54.272;18.558;2023-02-01T13:39:51;8.00;;;3.40;;
68806;SDS011;55800;54.272;18.558;2023-02-01T13:42:42;6.38;;;3.20;;
68806;SDS011;55800;54.272;18.558;2023-02-01T13:45:19;5.47;;;2.85;;
68806;SDS011;55800;54.272;18.558;2023-02-01T13:47:51;6.65;;;3.58;;
68806;SDS011;55800;54.272;18.558;2023-02-01T13:50:25;8.85;;;3.42;;
68806;SDS011;55800;54.272;18.558;2023-02-01T13:52:58;4.22;;;3.35;;
68806;SDS011;55800;54.272;18.558;2023-02-01T13:55:32;5.00;;;2.20;;
68806;SDS011;55800;54.272;18.558;2023-02-01T13:58:14;6.90;;;2.55;;
68806;SDS011;55800;54.272;18.558;2023-02-01T14:00:47;2.28;;;1.60;;
68806;SDS011;55800;54.272;18.558;2023-02-01T14:03:19;10.77;;;2.33;;
68806;SDS011;55800;54.272;18.558;2023-02-01T14:06:01;6.03;;;2.17;;
68806;SDS011;55800;54.272;18.558;2023-02-01T14:11:43;10.25;;;4.63;;
68806;SDS011;55800;54.272;18.558;2023-02-01T14:23:14;3.55;;;2.90;;
68806;SDS011;55800;54.272;18.558;2023-02-01T14:25:45;12.60;;;2.75;;
68806;SDS011;55800;54.272;18.558;2023-02-01T14:28:32;11.50;;;2.55;;
68806;SDS011;55800;54.272;18.558;2023-02-01T14:31:13;3.05;;;2.78;;
68806;SDS011;55800;54.272;18.558;2023-02-01T14:34:18;13.38;;;5.22;;
68806;SDS011;55800;54.272;18.558;2023-02-01T14:36:57;8.65;;;3.63;;
68806;SDS011;55800;54.272;18.558;2023-02-01T14:39:32;5.70;;;2.38;;
68806;SDS011;55800;54.272;18.558;2023-02-01T14:42:18;4.78;;;3.25;;
68806;SDS011;55800;54.272;18.558;2023-02-01T14:51:14;4.95;;;2.40;;
68806;SDS011;55800;54.272;18.558;2023-02-01T14:53:45;4.13;;;2.10;;
68806;SDS011;55800;54.272;18.558;2023-02-01T14:56:16;3.63;;;2.22;;
68806;SDS011;55800;54.272;18.558;2023-02-01T14:58:50;3.42;;;2.25;;
68806;SDS011;55800;54.272;18.558;2023-02-01T15:01:25;7.90;;;3.20;;
68806;SDS011;55800;54.272;18.558;2023-02-01T15:04:00;4.20;;;2.88;;
68806;SDS011;55800;54.272;18.558;2023-02-01T15:06:35;3.65;;;2.95;;
68806;SDS011;55800;54.272;18.558;2023-02-01T15:09:08;7.40;;;3.05;;
68806;SDS011;55800;54.272;18.558;2023-02-01T15:11:53;6.97;;;2.95;;
68806;SDS011;55800;54.272;18.558;2023-02-01T15:14:29;4.53;;;2.75;;
68806;SDS011;55800;54.272;18.558;2023-02-01T15:17:00;2.88;;;2.55;;
68806;SDS011;55800;54.272;18.558;2023-02-01T15:19:31;7.43;;;3.60;;
68806;SDS011;55800;54.272;18.558;2023-02-01T15:22:02;8.27;;;3.08;;
68806;SDS011;55800;54.272;18.558;2023-02-01T15:24:32;4.05;;;2.22;;
68806;SDS011;55800;54.272;18.558;2023-02-01T15:27:03;5.78;;;3.67;;
68806;SDS011;55800;54.272;18.558;2023-02-01T15:29:33;9.75;;;3.45;;
68806;SDS011;55800;54.272;18.558;2023-02-01T15:32:03;4.28;;;2.67;;
68806;SDS011;55800;54.272;18.558;2023-02-01T15:37:20;6.63;;;3.17;;
68806;SDS011;55800;54.272;18.558;2023-02-01T15:40:03;7.53;;;2.85;;
68806;SDS011;55800;54.272;18.558;2023-02-01T15:42:49;13.73;;;4.13;;
68806;SDS011;55800;54.272;18.558;2023-02-01T15:45:21;5.40;;;3.65;;
68806;SDS011;55800;54.272;18.558;2023-02-01T15:47:58;7.85;;;3.38;;
68806;SDS011;55800;54.272;18.558;2023-02-01T15:50:29;8.10;;;3.72;;
68806;SDS011;55800;54.272;18.558;2023-02-01T15:53:00;6.20;;;2.58;;
68806;SDS011;55800;54.272;18.558;2023-02-01T15:55:31;9.15;;;3.38;;
68806;SDS011;55800;54.272;18.558;2023-02-01T15:58:08;5.05;;;2.92;;
68806;SDS011;55800;54.272;18.558;2023-02-01T16:00:44;9.93;;;5.07;;
68806;SDS011;55800;54.272;18.558;2023-02-01T16:03:24;7.88;;;3.92;;
68806;SDS011;55800;54.272;18.558;2023-02-01T16:05:57;9.00;;;4.03;;
68806;SDS011;55800;54.272;18.558;2023-02-01T16:08:30;13.52;;;5.10;;
68806;SDS011;55800;54.272;18.558;2023-02-01T16:11:12;11.93;;;4.32;;
68806;SDS011;55800;54.272;18.558;2023-02-01T16:13:49;11.90;;;4.82;;
68806;SDS011;55800;54.272;18.558;2023-02-01T16:16:18;17.63;;;6.32;;